sensor_id;sensor_type;location;lat;lon;timestamp;pressure;altitude;pressure_sealevel;temperature;humidity
38038;BME280;23843;51.320;12.340;2023-01-15T05:31:17;98734.34;;;7.55;100.00
38038;BME280;23843;51.320;12.340;2023-01-15T05:33:44;98747.00;;;7.50;100.00
38038;BME280;23843;51.320;12.340;2023-01-15T05:36:11;98753.41;;;7.46;100.00
38038;BME280;23843;51.320;12.340;2023-01-15T05:38:37;98754.78;;;7.39;100.00
38038;BME280;23843;51.320;12.340;2023-01-15T05:41:03;98756.69;;;7.37;100.00
38038;BME280;23843;51.320;12.340;2023-01-15T05:43:29;98748.84;;;7.22;100.00
38038;BME280;23843;51.320;12.340;2023-01-15T05:45:55;98759.81;;;7.29;100.00
38038;BME280;23843;51.320;12.340;2023-01-15T05:48:21;98749.47;;;7.26;100.00
38038;BME280;23843;51.320;12.340;2023-01-15T05:50:47;98762.34;;;7.31;100.00
38038;BME280;23843;51.320;12.340;2023-01-15T05:53:12;98763.84;;;7.35;100.00
38038;BME280;23843;51.320;12.340;2023-01-15T05:55:38;98780.78;;;7.31;100.00
38038;BME280;23843;51.320;12.340;2023-01-15T05:58:03;98779.09;;;7.29;100.00
38038;BME280;23843;51.320;12.340;2023-01-15T06:00:28;98790.03;;;7.23;100.00
38038;BME280;23843;51.320;12.340;2023-01-15T06:02:54;98785.50;;;7.25;100.00
38038;BME280;23843;51.320;12.340;2023-01-15T06:05:21;98798.91;;;7.22;100.00
38038;BME280;23843;51.320;12.340;2023-01-15T06:07:47;98801.53;;;7.22;100.00
38038;BME280;23843;51.320;12.340;2023-01-15T06:10:14;98805.75;;;7.25;100.00
38038;BME280;23843;51.320;12.340;2023-01-15T06:12:39;98812.25;;;7.19;100.00
38038;BME280;23843;51.320;12.340;2023-01-15T06:15:06;98804.91;;;7.24;100.00
38038;BME280;23843;51.320;12.340;2023-01-15T06:17:31;98808.19;;;7.28;100.00
38038;BME280;23843;51.320;12.340;2023-01-15T06:19:57;98799.53;;;7.26;100.00
38038;BME280;23843;51.320;12.340;2023-01-15T06:22:24;98801.69;;;7.19;100.00
38038;BME280;23843;51.320;12.340;2023-01-15T06:24:49;98815.81;;;7.18;100.00
38038;BME280;23843;51.320;12.340;2023-01-15T06:27:14;98822.59;;;7.22;100.00
38038;BME280;23843;51.320;12.340;2023-01-15T06:29:40;98826.91;;;7.23;100.00
38038;BME280;23843;51.320;12.340;2023-01-15T06:32:05;98821.63;;;7.23;100.00
38038;BME280;23843;51.320;12.340;2023-01-15T06:34:31;98826.16;;;7.21;100.00
38038;BME280;23843;51.320;12.340;2023-01-15T06:36:56;98823.44;;;7.23;100.00
38038;BME280;23843;51.320;12.340;2023-01-15T06:39:23;98816.88;;;7.16;100.00
38038;BME280;23843;51.320;12.340;2023-01-15T06:41:49;98827.91;;;7.08;100.00
38038;BME280;23843;51.320;12.340;2023-01-15T06:44:16;98830.06;;;7.01;100.00
38038;BME280;23843;51.320;12.340;2023-01-15T06:46:43;98825.84;;;6.99;100.00
38038;BME280;23843;51.320;12.340;2023-01-15T06:49:09;98836.19;;;7.02;100.00
38038;BME280;23843;51.320;12.340;2023-01-15T06:51:34;98844.84;;;7.04;100.00
38038;BME280;23843;51.320;12.340;2023-01-15T06:53:59;98846.44;;;6.92;100.00
38038;BME280;23843;51.320;12.340;2023-01-15T06:56:26;98840.63;;;6.87;100.00
38038;BME280;23843;51.320;12.340;2023-01-15T06:58:52;98845.63;;;6.92;100.00
38038;BME280;23843;51.320;12.340;2023-01-15T07:01:17;98844.31;;;6.84;100.00
38038;BME280;23843;51.320;12.340;2023-01-15T07:03:42;98848.38;;;6.90;100.00
38038;BME280;23843;51.320;12.340;2023-01-15T07:06:09;98840.09;;;6.68;100.00
38038;BME280;23843;51.320;12.340;2023-01-15T07:08:35;98840.38;;;6.77;100.00
38038;BME280;23843;51.320;12.340;2023-01-15T07:11:01;98866.81;;;6.76;100.00
38038;BME280;23843;51.320;12.340;2023-01-15T07:13:28;98868.41;;;6.64;100.00
38038;BME280;23843;51.320;12.340;2023-01-15T07:15:54;98867.38;;;6.67;100.00
38038;BME280;23843;51.320;12.340;2023-01-15T07:18:22;98850.75;;;6.66;100.00
38038;BME280;23843;51.320;12.340;2023-01-15T07:20:47;98843.31;;;6.58;100.00
38038;BME280;23843;51.320;12.340;2023-01-15T07:23:15;98859.84;;;6.60;100.00
38038;BME280;23843;51.320;12.340;2023-01-15T07:25:41;98883.06;;;6.54;100.00
38038;BME280;23843;51.320;12.340;2023-01-15T07:28:06;98892.63;;;6.55;100.00
38038;BME280;23843;51.320;12.340;2023-01-15T07:30:33;98886.63;;;6.53;100.00
38038;BME280;23843;51.320;12.340;2023-01-15T07:32:59;98887.66;;;6.50;100.00
38038;BME280;23843;51.320;12.340;2023-01-15T07:35:27;98894.72;;;6.50;100.00
38038;BME280;23843;51.320;12.340;2023-01-15T07:37:52;98890.56;;;6.46;100.00
38038;BME280;23843;51.320;12.340;2023-01-15T07:40:18;98887.28;;;6.42;100.00
38038;BME280;23843;51.320;12.340;2023-01-15T07:42:43;98887.28;;;6.42;100.00
38038;BME280;23843;51.320;12.340;2023-01-15T07:45:09;98888.03;;;6.44;100.00
38038;BME280;23843;51.320;12.340;2023-01-15T07:47:38;98873.09;;;6.45;100.00
38038;BME280;23843;51.320;12.340;2023-01-15T07:50:04;98880.88;;;6.46;100.00
38038;BME280;23843;51.320;12.340;2023-01-15T07:52:30;98893.94;;;6.48;100.00
38038;BME280;23843;51.320;12.340;2023-01-15T07:54:55;98894.91;;;6.47;100.00
38038;BME280;23843;51.320;12.340;2023-01-15T07:57:21;98896.59;;;6.48;100.00
38038;BME280;23843;51.320;12.340;2023-01-15T07:59:47;98896.50;;;6.49;100.00
38038;BME280;23843;51.320;12.340;2023-01-15T08:02:13;98896.97;;;6.41;100.00
38038;BME280;23843;51.320;12.340;2023-01-15T08:04:40;98893.31;;;6.44;100.00
38038;BME280;23843;51.320;12.340;2023-01-15T08:07:06;98883.81;;;6.41;100.00
38038;BME280;23843;51.320;12.340;2023-01-15T08:09:31;98881.34;;;6.38;100.00
38038;BME280;23843;51.320;12.340;2023-01-15T08:11:57;98882.78;;;6.44;100.00
38038;BME280;23843;51.320;12.340;2023-01-15T08:14:23;98875.44;;;6.35;100.00
38038;BME280;23843;51.320;12.340;2023-01-15T08:16:48;98871.59;;;6.40;100.00
38038;BME280;23843;51.320;12.340;2023-01-15T08:19:14;98874.13;;;6.42;100.00
38038;BME280;23843;51.320;12.340;2023-01-15T08:21:41;98875.16;;;6.39;100.00
38038;BME280;23843;51.320;12.340;2023-01-15T08:24:06;98893.38;;;6.42;100.00
38038;BME280;23843;51.320;12.340;2023-01-15T08:26:32;98905.22;;;6.35;100.00
38038;BME280;23843;51.320;12.340;2023-01-15T08:28:57;98905.97;;;6.37;100.00
38038;BME280;23843;51.320;12.340;2023-01-15T08:31:23;98912.00;;;6.39;100.00
38038;BME280;23843;51.320;12.340;2023-01-15T08:33:48;98913.47;;;6.43;100.00
38038;BME280;23843;51.320;12.340;2023-01-15T08:36:14;98906.63;;;6.41;100.00
38038;BME280;23843;51.320;12.340;2023-01-15T08:38:41;98913.41;;;6.45;100.00
38038;BME280;23843;51.320;12.340;2023-01-15T08:41:06;98911.25;;;6.52;100.00
38038;BME280;23843;51.320;12.340;2023-01-15T08:43:31;98918.38;;;6.50;100.00
38038;BME280;23843;51.320;12.340;2023-01-15T08:45:58;98925.53;;;6.48;100.00
38038;BME280;23843;51.320;12.340;2023-01-15T08:48:24;98925.31;;;6.51;100.00
38038;BME280;23843;51.320;12.340;2023-01-15T08:50:49;98918.38;;;6.50;100.00
38038;BME280;23843;51.320;12.340;2023-01-15T08:53:15;98928.06;;;6.49;100.00
38038;BME280;23843;51.320;12.340;2023-01-15T08:55:42;98922.63;;;6.52;100.00
38038;BME280;23843;51.320;12.340;2023-01-15T08:58:07;98923.66;;;6.50;100.00
38038;BME280;23843;51.320;12.340;2023-01-15T09:00:32;98914.72;;;6.52;100.00
38038;BME280;23843;51.320;12.340;2023-01-15T09:02:58;98917.16;;;6.55;100.00
38038;BME280;23843;51.320;12.340;2023-01-15T09:05:23;98922.34;;;6.57;100.00
38038;BME280;23843;51.320;12.340;2023-01-15T09:07:49;98927.41;;;6.60;100.00
38038;BME280;23843;51.320;12.340;2023-01-15T09:10:15;98926.84;;;6.55;100.00
38038;BME280;23843;51.320;12.340;2023-01-15T09:12:41;98921.22;;;6.61;100.00
38038;BME280;23843;51.320;12.340;2023-01-15T09:15:08;98922.72;;;6.65;100.00
38038;BME280;23843;51.320;12.340;2023-01-15T09:17:33;98931.38;;;6.67;100.00
38038;BME280;23843;51.320;12.340;2023-01-15T09:19:59;98940.78;;;6.71;100.00
38038;BME280;23843;51.320;12.340;2023-01-15T09:22:24;98937.88;;;6.76;100.00
38038;BME280;23843;51.320;12.340;2023-01-15T09:24:50;98940.38;;;6.77;100.00
38038;BME280;23843;51.320;12.340;2023-01-15T09:27:15;98949.31;;;6.75;100.00
38038;BME280;23843;51.320;12.340;2023-01-15T09:32:22;98950.63;;;6.82;100.00
38038;BME280;23843;51.320;12.340;2023-01-15T09:34:48;98953.38;;;6.80;100.00
38038;BME280;23843;51.320;12.340;2023-01-15T09:37:13;98949.25;;;6.91;100.00
38038;BME280;23843;51.320;12.340;2023-01-15T09:39:39;98947.72;;;6.86;100.00
38038;BME280;23843;51.320;12.340;2023-01-15T09:42:16;98950.34;;;6.86;100.00
38038;BME280;23843;51.320;12.340;2023-01-15T09:44:59;98956.19;;;6.92;100.00
38038;BME280;23843;51.320;12.340;2023-01-15T09:47:33;98954.38;;;6.92;100.00
38038;BME280;23843;51.320;12.340;2023-01-15T09:50:14;98957.50;;;6.99;100.00
38038;BME280;23843;51.320;12.340;2023-01-15T09:53:05;98962.56;;;7.02;100.00
38038;BME280;23843;51.320;12.340;2023-01-15T09:55:39;98956.84;;;7.10;100.00
38038;BME280;23843;51.320;12.340;2023-01-15T09:58:09;98957.41;;;7.15;100.00
38038;BME280;23843;51.320;12.340;2023-01-15T10:00:40;98953.63;;;7.19;100.00
38038;BME280;23843;51.320;12.340;2023-01-15T10:03:18;98947.78;;;7.28;100.00
38038;BME280;23843;51.320;12.340;2023-01-15T10:05:47;98938.00;;;7.30;100.00
38038;BME280;23843;51.320;12.340;2023-01-15T10:08:23;98941.88;;;7.24;100.00
38038;BME280;23843;51.320;12.340;2023-01-15T10:10:54;98943.06;;;7.33;100.00
38038;BME280;23843;51.320;12.340;2023-01-15T10:13:27;98939.78;;;7.29;100.00
38038;BME280;23843;51.320;12.340;2023-01-15T10:15:57;98950.31;;;7.44;100.00
38038;BME280;23843;51.320;12.340;2023-01-15T10:18:24;98960.09;;;7.42;100.00
38038;BME280;23843;51.320;12.340;2023-01-15T10:20:57;98966.00;;;7.45;100.00
38038;BME280;23843;51.320;12.340;2023-01-15T10:23:32;98970.13;;;7.49;100.00
38038;BME280;23843;51.320;12.340;2023-01-15T10:26:07;98975.31;;;7.51;100.00
38038;BME280;23843;51.320;12.340;2023-01-15T10:31:39;98983.53;;;7.46;100.00
38038;BME280;23843;51.320;12.340;2023-01-15T10:37:06;98977.97;;;7.51;100.00
38038;BME280;23843;51.320;12.340;2023-01-15T10:39:38;98970.44;;;7.45;100.00
38038;BME280;23843;51.320;12.340;2023-01-15T10:42:15;98978.53;;;7.42;100.00
38038;BME280;23843;51.320;12.340;2023-01-15T10:44:53;98969.19;;;7.50;100.00
38038;BME280;23843;51.320;12.340;2023-01-15T10:47:31;98973.34;;;7.40;100.00
38038;BME280;23843;51.320;12.340;2023-01-15T10:49:58;98982.38;;;7.36;100.00
38038;BME280;23843;51.320;12.340;2023-01-15T10:52:28;98969.59;;;7.44;100.00
38038;BME280;23843;51.320;12.340;2023-01-15T10:55:02;98965.72;;;7.50;100.00
38038;BME280;23843;51.320;12.340;2023-01-15T10:57:37;98975.88;;;7.56;100.00
38038;BME280;23843;51.320;12.340;2023-01-15T11:00:09;98958.06;;;7.60;100.00
38038;BME280;23843;51.320;12.340;2023-01-15T11:02:39;98960.31;;;7.66;100.00
38038;BME280;23843;51.320;12.340;2023-01-15T11:05:05;98960.81;;;7.85;100.00
38038;BME280;23843;51.320;12.340;2023-01-15T11:07:40;98952.81;;;8.00;100.00
38038;BME280;23843;51.320;12.340;2023-01-15T11:10:08;98975.47;;;7.89;99.45
38038;BME280;23843;51.320;12.340;2023-01-15T11:12:34;98955.38;;;8.01;99.19
38038;BME280;23843;51.320;12.340;2023-01-15T11:15:00;98967.81;;;7.99;98.21
38038;BME280;23843;51.320;12.340;2023-01-15T11:17:28;98971.19;;;8.01;99.47
38038;BME280;23843;51.320;12.340;2023-01-15T11:19:56;98969.84;;;8.08;97.99
38038;BME280;23843;51.320;12.340;2023-01-15T11:22:21;98967.53;;;8.17;98.51
38038;BME280;23843;51.320;12.340;2023-01-15T11:24:49;98959.84;;;8.13;97.92
38038;BME280;23843;51.320;12.340;2023-01-15T11:27:17;98965.41;;;8.09;96.14
38038;BME280;23843;51.320;12.340;2023-01-15T11:29:44;98973.53;;;8.06;97.11
38038;BME280;23843;51.320;12.340;2023-01-15T11:32:19;98966.88;;;8.00;93.87
38038;BME280;23843;51.320;12.340;2023-01-15T11:34:51;98964.53;;;7.96;95.97
38038;BME280;23843;51.320;12.340;2023-01-15T11:37:18;98969.91;;;7.94;96.15
38038;BME280;23843;51.320;12.340;2023-01-15T11:39:51;98975.94;;;7.96;97.42
38038;BME280;23843;51.320;12.340;2023-01-15T11:42:18;98975.31;;;8.05;98.67
38038;BME280;23843;51.320;12.340;2023-01-15T11:44:52;98966.47;;;8.06;96.78
38038;BME280;23843;51.320;12.340;2023-01-15T11:47:18;98977.47;;;8.13;97.63
38038;BME280;23843;51.320;12.340;2023-01-15T11:49:49;98991.75;;;7.96;98.24
38038;BME280;23843;51.320;12.340;2023-01-15T11:52:16;98989.31;;;7.93;96.92
38038;BME280;23843;51.320;12.340;2023-01-15T11:54:46;98972.53;;;7.94;96.75
38038;BME280;23843;51.320;12.340;2023-01-15T11:57:23;98968.41;;;7.90;96.59
38038;BME280;23843;51.320;12.340;2023-01-15T11:59:50;98964.50;;;7.83;97.03
38038;BME280;23843;51.320;12.340;2023-01-15T12:02:22;98968.28;;;7.79;95.65
38038;BME280;23843;51.320;12.340;2023-01-15T12:04:52;98967.72;;;7.74;99.61
38038;BME280;23843;51.320;12.340;2023-01-15T12:07:19;98967.34;;;7.65;98.09
38038;BME280;23843;51.320;12.340;2023-01-15T12:10:02;98965.25;;;7.70;98.77
38038;BME280;23843;51.320;12.340;2023-01-15T12:12:40;98974.34;;;7.66;97.46
38038;BME280;23843;51.320;12.340;2023-01-15T12:15:21;98973.03;;;7.59;96.77
38038;BME280;23843;51.320;12.340;2023-01-15T12:18:03;98969.84;;;7.54;96.45
38038;BME280;23843;51.320;12.340;2023-01-15T12:20:46;98957.88;;;7.48;96.99
38038;BME280;23843;51.320;12.340;2023-01-15T12:23:35;98959.88;;;7.45;98.27
38038;BME280;23843;51.320;12.340;2023-01-15T12:26:07;98960.94;;;7.42;95.78
38038;BME280;23843;51.320;12.340;2023-01-15T12:28:39;98962.34;;;7.34;94.56
38038;BME280;23843;51.320;12.340;2023-01-15T12:31:11;98971.66;;;7.39;95.00
38038;BME280;23843;51.320;12.340;2023-01-15T12:33:43;98941.81;;;7.39;92.91
38038;BME280;23843;51.320;12.340;2023-01-15T12:36:14;98939.00;;;7.42;94.11
38038;BME280;23843;51.320;12.340;2023-01-15T12:38:50;98953.13;;;7.41;95.98
38038;BME280;23843;51.320;12.340;2023-01-15T12:41:24;98929.69;;;7.36;94.33
38038;BME280;23843;51.320;12.340;2023-01-15T12:43:54;98944.44;;;7.39;97.23
38038;BME280;23843;51.320;12.340;2023-01-15T12:46:24;98958.59;;;7.38;97.42
38038;BME280;23843;51.320;12.340;2023-01-15T12:48:56;98955.41;;;7.33;99.29
38038;BME280;23843;51.320;12.340;2023-01-15T12:51:29;98953.31;;;7.38;97.23
38038;BME280;23843;51.320;12.340;2023-01-15T12:54:00;98952.84;;;7.31;96.97
38038;BME280;23843;51.320;12.340;2023-01-15T12:56:33;98971.78;;;7.23;96.84
38038;BME280;23843;51.320;12.340;2023-01-15T12:59:05;98987.56;;;7.23;98.05
38038;BME280;23843;51.320;12.340;2023-01-15T13:01:37;98987.41;;;7.12;96.47
38038;BME280;23843;51.320;12.340;2023-01-15T13:04:13;98966.22;;;7.14;94.97
38038;BME280;23843;51.320;12.340;2023-01-15T13:06:43;98939.63;;;7.18;95.02
38038;BME280;23843;51.320;12.340;2023-01-15T13:09:21;98936.41;;;7.27;96.17
38038;BME280;23843;51.320;12.340;2023-01-15T13:11:51;98964.00;;;7.22;96.44
38038;BME280;23843;51.320;12.340;2023-01-15T13:14:18;98981.47;;;7.08;97.24
38038;BME280;23843;51.320;12.340;2023-01-15T13:16:50;98991.53;;;7.16;98.98
38038;BME280;23843;51.320;12.340;2023-01-15T13:19:27;99005.66;;;7.01;97.47
38038;BME280;23843;51.320;12.340;2023-01-15T13:21:59;99000.19;;;7.04;99.72
38038;BME280;23843;51.320;12.340;2023-01-15T13:24:55;98999.53;;;7.00;100.00
38038;BME280;23843;51.320;12.340;2023-01-15T13:27:37;98989.28;;;6.96;100.00
38038;BME280;23843;51.320;12.340;2023-01-15T13:30:16;98987.13;;;6.88;100.00
38038;BME280;23843;51.320;12.340;2023-01-15T13:32:48;98992.84;;;6.95;100.00
38038;BME280;23843;51.320;12.340;2023-01-15T13:35:20;98997.84;;;6.99;100.00
38038;BME280;23843;51.320;12.340;2023-01-15T13:37:52;99011.56;;;6.90;100.00
38038;BME280;23843;51.320;12.340;2023-01-15T13:40:23;98998.59;;;7.01;100.00
38038;BME280;23843;51.320;12.340;2023-01-15T13:42:53;98998.50;;;6.89;100.00
38038;BME280;23843;51.320;12.340;2023-01-15T13:45:25;99003.75;;;6.89;100.00
38038;BME280;23843;51.320;12.340;2023-01-15T13:47:57;99016.72;;;6.92;100.00
38038;BME280;23843;51.320;12.340;2023-01-15T13:50:29;99013.81;;;6.82;100.00
38038;BME280;23843;51.320;12.340;2023-01-15T13:53:01;99000.94;;;6.92;100.00
38038;BME280;23843;51.320;12.340;2023-01-15T13:55:30;99010.13;;;6.84;100.00
38038;BME280;23843;51.320;12.340;2023-01-15T13:57:58;99025.19;;;6.82;100.00
38038;BME280;23843;51.320;12.340;2023-01-15T14:00:29;99036.28;;;6.88;100.00
38038;BME280;23843;51.320;12.340;2023-01-15T14:02:56;99038.44;;;6.81;100.00
38038;BME280;23843;51.320;12.340;2023-01-15T14:05:29;99038.44;;;6.81;100.00
38038;BME280;23843;51.320;12.340;2023-01-15T14:07:55;99043.22;;;6.74;100.00
38038;BME280;23843;51.320;12.340;2023-01-15T14:10:31;99063.16;;;6.78;100.00
38038;BME280;23843;51.320;12.340;2023-01-15T14:13:11;99072.44;;;6.70;100.00
38038;BME280;23843;51.320;12.340;2023-01-15T14:15:47;99066.91;;;6.74;100.00
38038;BME280;23843;51.320;12.340;2023-01-15T14:18:39;99074.41;;;6.66;100.00
38038;BME280;23843;51.320;12.340;2023-01-15T14:21:21;99089.84;;;6.72;100.00
38038;BME280;23843;51.320;12.340;2023-01-15T14:27:01;99095.94;;;6.73;100.00
38038;BME280;23843;51.320;12.340;2023-01-15T14:33:20;99084.94;;;6.66;100.00
38038;BME280;23843;51.320;12.340;2023-01-15T14:35:53;99100.06;;;6.62;100.00
38038;BME280;23843;51.320;12.340;2023-01-15T14:38:21;99083.94;;;6.53;100.00
38038;BME280;23843;51.320;12.340;2023-01-15T14:40:55;99088.44;;;6.51;100.00
38038;BME280;23843;51.320;12.340;2023-01-15T14:43:22;99094.41;;;6.38;100.00
38038;BME280;23843;51.320;12.340;2023-01-15T14:45:49;99107.75;;;6.35;100.00
38038;BME280;23843;51.320;12.340;2023-01-15T14:48:19;99095.53;;;6.34;100.00
38038;BME280;23843;51.320;12.340;2023-01-15T14:50:46;99095.28;;;6.23;99.93
38038;BME280;23843;51.320;12.340;2023-01-15T14:53:28;99108.63;;;6.20;99.43
38038;BME280;23843;51.320;12.340;2023-01-15T14:55:57;99102.59;;;6.18;100.00
38038;BME280;23843;51.320;12.340;2023-01-15T14:58:33;99099.38;;;6.13;100.00
38038;BME280;23843;51.320;12.340;2023-01-15T15:01:11;99108.53;;;6.06;100.00
38038;BME280;23843;51.320;12.340;2023-01-15T15:03:44;99117.69;;;5.98;100.00
38038;BME280;23843;51.320;12.340;2023-01-15T15:06:13;99110.09;;;5.92;100.00
38038;BME280;23843;51.320;12.340;2023-01-15T15:08:41;99107.06;;;5.84;100.00
38038;BME280;23843;51.320;12.340;2023-01-15T15:11:15;99099.59;;;5.76;100.00
38038;BME280;23843;51.320;12.340;2023-01-15T15:13:45;99112.13;;;5.71;100.00
38038;BME280;23843;51.320;12.340;2023-01-15T15:16:17;99111.44;;;5.68;100.00
38038;BME280;23843;51.320;12.340;2023-01-15T15:18:46;99099.31;;;5.65;100.00
38038;BME280;23843;51.320;12.340;2023-01-15T15:21:21;99098.97;;;5.55;100.00
38038;BME280;23843;51.320;12.340;2023-01-15T15:23:54;99111.00;;;5.60;100.00
38038;BME280;23843;51.320;12.340;2023-01-15T15:26:24;99114.88;;;5.52;100.00
38038;BME280;23843;51.320;12.340;2023-01-15T15:29:00;99116.97;;;5.46;100.00
38038;BME280;23843;51.320;12.340;2023-01-15T15:31:30;99120.13;;;5.36;100.00
38038;BME280;23843;51.320;12.340;2023-01-15T15:33:57;99115.72;;;5.37;100.00
38038;BME280;23843;51.320;12.340;2023-01-15T15:36:26;99111.38;;;5.36;100.00
38038;BME280;23843;51.320;12.340;2023-01-15T15:38:53;99112.72;;;5.27;100.00
38038;BME280;23843;51.320;12.340;2023-01-15T15:41:21;99105.06;;;5.23;100.00
38038;BME280;23843;51.320;12.340;2023-01-15T15:43:52;99105.00;;;5.24;100.00
38038;BME280;23843;51.320;12.340;2023-01-15T15:46:23;99092.97;;;5.20;100.00
38038;BME280;23843;51.320;12.340;2023-01-15T15:48:56;99101.91;;;5.16;100.00
38038;BME280;23843;51.320;12.340;2023-01-15T15:51:24;99085.63;;;5.09;100.00
38038;BME280;23843;51.320;12.340;2023-01-15T15:54:02;99093.66;;;5.06;100.00
38038;BME280;23843;51.320;12.340;2023-01-15T15:56:27;99084.88;;;5.07;100.00
38038;BME280;23843;51.320;12.340;2023-01-15T15:58:53;99085.19;;;5.01;100.00
38038;BME280;23843;51.320;12.340;2023-01-15T16:01:18;99081.09;;;4.96;100.00
38038;BME280;23843;51.320;12.340;2023-01-15T16:03:45;99081.25;;;4.92;100.00
38038;BME280;23843;51.320;12.340;2023-01-15T16:06:19;99090.06;;;4.91;100.00
38038;BME280;23843;51.320;12.340;2023-01-15T16:08:51;99084.88;;;4.90;100.00
38038;BME280;23843;51.320;12.340;2023-01-15T16:11:17;99093.75;;;4.87;100.00
38038;BME280;23843;51.320;12.340;2023-01-15T16:13:44;99088.72;;;4.83;100.00
38038;BME280;23843;51.320;12.340;2023-01-15T16:16:12;99084.44;;;4.82;100.00
38038;BME280;23843;51.320;12.340;2023-01-15T16:18:39;99085.66;;;4.75;100.00
38038;BME280;23843;51.320;12.340;2023-01-15T16:21:06;99087.06;;;4.82;100.00
38038;BME280;23843;51.320;12.340;2023-01-15T16:23:34;99076.50;;;4.83;100.00
38038;BME280;23843;51.320;12.340;2023-01-15T16:26:02;99077.16;;;4.87;100.00
38038;BME280;23843;51.320;12.340;2023-01-15T16:28:35;99081.97;;;4.79;100.00
38038;BME280;23843;51.320;12.340;2023-01-15T16:31:01;99102.03;;;4.80;100.00
38038;BME280;23843;51.320;12.340;2023-01-15T16:33:27;99119.31;;;4.84;100.00
38038;BME280;23843;51.320;12.340;2023-01-15T16:35:57;99123.78;;;4.82;100.00
38038;BME280;23843;51.320;12.340;2023-01-15T16:38:23;99123.50;;;4.88;100.00
38038;BME280;23843;51.320;12.340;2023-01-15T16:40:51;99145.63;;;4.82;100.00
38038;BME280;23843;51.320;12.340;2023-01-15T16:43:19;99145.41;;;4.87;100.00
38038;BME280;23843;51.320;12.340;2023-01-15T16:45:57;99153.66;;;4.97;100.00
38038;BME280;23843;51.320;12.340;2023-01-15T16:48:25;99154.38;;;5.00;100.00
38038;BME280;23843;51.320;12.340;2023-01-15T16:50:51;99142.69;;;5.06;100.00
38038;BME280;23843;51.320;12.340;2023-01-15T16:53:35;99140.00;;;5.07;100.00
38038;BME280;23843;51.320;12.340;2023-01-15T16:56:02;99145.25;;;5.07;100.00
38038;BME280;23843;51.320;12.340;2023-01-15T16:58:36;99142.53;;;5.09;100.00
38038;BME280;23843;51.320;12.340;2023-01-15T17:01:23;99138.53;;;5.02;100.00
38038;BME280;23843;51.320;12.340;2023-01-15T17:03:50;99142.75;;;5.04;100.00
38038;BME280;23843;51.320;12.340;2023-01-15T17:06:19;99145.94;;;4.93;100.00
38038;BME280;23843;51.320;12.340;2023-01-15T17:08:47;99147.84;;;4.90;100.00
38038;BME280;23843;51.320;12.340;2023-01-15T17:11:18;99144.47;;;4.88;100.00
38038;BME280;23843;51.320;12.340;2023-01-15T17:13:44;99138.38;;;4.87;100.00
38038;BME280;23843;51.320;12.340;2023-01-15T17:16:16;99145.56;;;4.84;100.00
38038;BME280;23843;51.320;12.340;2023-01-15T17:18:42;99160.97;;;4.90;100.00
38038;BME280;23843;51.320;12.340;2023-01-15T17:21:12;99152.25;;;4.89;100.00
38038;BME280;23843;51.320;12.340;2023-01-15T17:23:39;99169.50;;;4.95;100.00
38038;BME280;23843;51.320;12.340;2023-01-15T17:26:05;99165.16;;;4.94;100.00
38038;BME280;23843;51.320;12.340;2023-01-15T17:28:32;99164.16;;;4.97;100.00
38038;BME280;23843;51.320;12.340;2023-01-15T17:31:00;99163.84;;;5.03;100.00
38038;BME280;23843;51.320;12.340;2023-01-15T17:33:25;99161.13;;;5.04;100.00
38038;BME280;23843;51.320;12.340;2023-01-15T17:35:51;99158.44;;;5.06;100.00
38038;BME280;23843;51.320;12.340;2023-01-15T17:38:17;99156.00;;;5.03;100.00
38038;BME280;23843;51.320;12.340;2023-01-15T17:40:42;99153.44;;;5.01;100.00
38038;BME280;23843;51.320;12.340;2023-01-15T17:43:10;99150.81;;;5.01;100.00
38038;BME280;23843;51.320;12.340;2023-01-15T17:45:38;99151.81;;;4.99;100.00
38038;BME280;23843;51.320;12.340;2023-01-15T17:48:04;99165.78;;;4.99;100.00
38038;BME280;23843;51.320;12.340;2023-01-15T17:50:29;99164.69;;;5.03;100.00
38038;BME280;23843;51.320;12.340;2023-01-15T17:52:55;99166.38;;;5.04;100.00
38038;BME280;23843;51.320;12.340;2023-01-15T17:55:22;99176.28;;;4.99;100.00
38038;BME280;23843;51.320;12.340;2023-01-15T17:57:47;99169.34;;;4.98;100.00
38038;BME280;23843;51.320;12.340;2023-01-15T18:00:13;99184.47;;;4.93;100.00
38038;BME280;23843;51.320;12.340;2023-01-15T18:02:41;99186.47;;;4.88;100.00
38038;BME280;23843;51.320;12.340;2023-01-15T18:05:09;99181.50;;;4.82;100.00
38038;BME280;23843;51.320;12.340;2023-01-15T18:07:39;99176.25;;;4.82;100.00
38038;BME280;23843;51.320;12.340;2023-01-15T18:10:08;99173.41;;;4.86;100.00
38038;BME280;23843;51.320;12.340;2023-01-15T18:12:34;99170.56;;;4.91;100.00
38038;BME280;23843;51.320;12.340;2023-01-15T18:15:00;99159.75;;;4.97;100.00
38038;BME280;23843;51.320;12.340;2023-01-15T18:17:25;99162.16;;;5.02;100.00
38038;BME280;23843;51.320;12.340;2023-01-15T18:19:52;99158.00;;;4.98;100.00
38038;BME280;23843;51.320;12.340;2023-01-15T18:22:18;99160.63;;;4.98;100.00
38038;BME280;23843;51.320;12.340;2023-01-15T18:24:43;99166.38;;;5.04;100.00
38038;BME280;23843;51.320;12.340;2023-01-15T18:27:09;99162.16;;;5.02;100.00
38038;BME280;23843;51.320;12.340;2023-01-15T18:29:34;99161.38;;;5.00;100.00
38038;BME280;23843;51.320;12.340;2023-01-15T18:32:00;99162.38;;;4.97;100.00
38038;BME280;23843;51.320;12.340;2023-01-15T18:34:25;99160.06;;;4.91;100.00
38038;BME280;23843;51.320;12.340;2023-01-15T18:36:52;99163.84;;;4.85;100.00
38038;BME280;23843;51.320;12.340;2023-01-15T18:39:18;99165.00;;;4.80;100.00
38038;BME280;23843;51.320;12.340;2023-01-15T18:41:43;99168.72;;;4.76;100.00
38038;BME280;23843;51.320;12.340;2023-01-15T18:44:11;99168.06;;;4.70;100.00
38038;BME280;23843;51.320;12.340;2023-01-15T18:46:36;99171.78;;;4.66;100.00
38038;BME280;23843;51.320;12.340;2023-01-15T18:49:02;99169.31;;;4.63;100.00